Altoona, Alabama
Current Conditions -  °F | °C
As of 4:35 AM on Friday 28 Nov 2014 (Local Time) from K8A0 Reporting Station
Clear Clear  
Wind Chill: 21°   Ceiling: Unl
Heat Index: 27°   Visibility: 10mi
Dew Point: 27°   Wind: 5mph
Humidity: 100%   Direction: 10°N
Pressure: 30.38"   Gusts: NA
Location:  34.03°N, 86.33°W
Report Text: K8A0 281035Z AUTO 01004KT 10SM CLR M03/M03 A3038 RMK AO2
Loading
Personal Weather Stations






























Interactive Weather Map New forecast layout! Learn more

10-Day Weather Forecast

Advertisements
Track Severe Weather on mobile